KOMA/OMA METAR and TAF weather

Enter ICAO airport designator
Station Type Date Time Source
KOMA METAR 2018/12/17 17:52 UTC NOAA

KOMA 171752Z 16008KT 10SM CLR 04/M01 A3025 RMK AO2 SLP251 I6000 T00391011 10039 21056 58011


Station Type Date Time Source
KOMA Decoded METAR 2018/12/17 17:52 UTC NOAA

OMAHA EPPLEY AIRFIELD, NE, United States (KOMA) 41-18N 095-54W 312M
Dec 17, 2018 - 12:52 PM EST / 2018.12.17 1752 UTC
Wind: from the SSE (160 degrees) at 9 MPH (8 KT):0
Visibility: 10 mile(s):0
Sky conditions: clear
Temperature: 39.0 F (3.9 C)
Dew Point: 30.0 F (-1.1 C)
Relative Humidity: 69%
Pressure (altimeter): 30.25 in. Hg (1024 hPa)
Pressure tendency: 0.03 inches (1.1 hPa) lower than three hours ago
ob: KOMA 171752Z 16008KT 10SM CLR 04/M01 A3025 RMK AO2 SLP251 I6000 T00391011 10039 21056 58011
cycle: 18

Station Type Date Time Source
KOMA TAF 2018/12/17 18:33 UTC NOAA

TAF KOMA 171730Z 1718/1818 16010KT P6SM SKC
FM180000 15005KT P6SM FEW250
FM180500 16006KT P6SM SCT250 WS020/22035KT


Example: see airport list